createdAt,value
2023-01-13T00:00:20.762Z,101718.95
2023-01-13T00:03:10.780Z,101716.55
2023-01-13T00:06:03.037Z,101712.21
2023-01-13T00:08:53.282Z,101713.48
2023-01-13T00:11:43.634Z,101709.70
2023-01-13T00:14:36.880Z,101707.29
2023-01-13T00:17:27.025Z,101696.10
2023-01-13T00:20:17.618Z,101693.29
2023-01-13T00:23:07.469Z,101692.42
2023-01-13T00:26:00.489Z,101693.85
2023-01-13T00:28:51.142Z,101688.86
2023-01-13T00:31:40.894Z,101685.77
2023-01-13T00:34:30.970Z,101689.24
2023-01-13T00:37:21.598Z,101678.84
2023-01-13T00:40:14.546Z,101674.78
2023-01-13T00:43:22.509Z,101674.30
2023-01-13T00:46:14.387Z,101672.42
2023-01-13T00:49:04.013Z,101665.06
2023-01-13T00:51:53.865Z,101659.85
2023-01-13T00:54:43.324Z,101664.14
2023-01-13T00:57:33.158Z,101654.05
2023-01-13T01:00:23.906Z,101652.59
2023-01-13T01:03:14.195Z,101653.81
2023-01-13T01:06:15.762Z,101652.66
2023-01-13T01:09:07.174Z,101653.45
2023-01-13T01:11:57.295Z,101653.10
2023-01-13T01:14:47.574Z,101652.59
2023-01-13T01:17:37.925Z,101651.38
2023-01-13T01:20:28.080Z,101647.95
2023-01-13T01:23:17.948Z,101649.77
2023-01-13T01:26:09.694Z,101643.86
2023-01-13T01:29:02.158Z,101648.15
2023-01-13T01:31:52.282Z,101645.63
2023-01-13T01:34:42.341Z,101647.39
2023-01-13T01:37:32.635Z,101643.81
2023-01-13T01:40:22.652Z,101649.31
2023-01-13T01:43:35.168Z,101646.33
2023-01-13T01:46:25.400Z,101642.12
2023-01-13T01:49:19.457Z,101634.60
2023-01-13T01:52:13.869Z,101638.76
2023-01-13T01:55:08.331Z,101635.58
2023-01-13T01:58:03.365Z,101631.07
2023-01-13T02:00:54.036Z,101630.59
2023-01-13T02:03:48.300Z,101628.78
2023-01-13T02:06:39.114Z,101623.66
2023-01-13T02:09:29.677Z,101615.35
2023-01-13T02:12:32.233Z,101614.32
2023-01-13T02:15:27.645Z,101610.33
2023-01-13T02:18:38.564Z,101606.04
2023-01-13T02:21:59.311Z,101604.19
2023-01-13T02:25:13.427Z,101597.14
2023-01-13T02:28:36.541Z,101591.53
2023-01-13T02:31:44.971Z,101583.78
2023-01-13T02:34:40.487Z,101579.44
2023-01-13T02:37:32.908Z,101574.85
2023-01-13T02:40:30.130Z,101565.22
2023-01-13T02:43:44.649Z,101553.55
2023-01-13T02:46:39.297Z,101548.54
2023-01-13T02:49:36.048Z,101553.17
2023-01-13T02:52:30.863Z,101558.37
2023-01-13T02:55:26.879Z,101559.53
2023-01-13T02:58:23.516Z,101553.39
2023-01-13T03:01:13.516Z,101553.95
2023-01-13T03:04:14.234Z,101551.14
2023-01-13T03:07:13.015Z,101544.98
2023-01-13T03:10:11.190Z,101549.97
2023-01-13T03:13:12.905Z,101555.05
2023-01-13T03:16:18.264Z,101546.96
2023-01-13T03:19:21.986Z,101538.58
2023-01-13T03:22:23.330Z,101531.41
2023-01-13T03:25:17.598Z,101530.55
2023-01-13T03:28:11.828Z,101530.36
2023-01-13T03:31:08.095Z,101525.78
2023-01-13T03:34:01.810Z,101524.56
2023-01-13T03:36:56.603Z,101515.67
2023-01-13T03:39:51.540Z,101505.73
2023-01-13T03:43:05.151Z,101509.69
2023-01-13T03:46:01.083Z,101507.51
2023-01-13T03:48:57.806Z,101507.20
2023-01-13T03:51:55.671Z,101506.15
2023-01-13T03:54:50.592Z,101502.16
2023-01-13T03:57:47.131Z,101503.27
2023-01-13T04:00:45.339Z,101503.56
2023-01-13T04:03:42.249Z,101499.03
2023-01-13T04:06:41.947Z,101490.35
2023-01-13T04:09:38.776Z,101487.69
2023-01-13T04:12:52.239Z,101481.90
2023-01-13T04:15:44.680Z,101489.02
2023-01-13T04:18:37.774Z,101491.88
2023-01-13T04:21:27.788Z,101484.86
2023-01-13T04:24:17.909Z,101483.43
2023-01-13T04:27:08.399Z,101487.08
2023-01-13T04:29:58.080Z,101492.32
2023-01-13T04:32:48.251Z,101488.27
2023-01-13T04:35:39.010Z,101484.15
2023-01-13T04:38:28.718Z,101480.21
2023-01-13T04:41:18.843Z,101485.63
2023-01-13T04:44:08.910Z,101481.63
2023-01-13T04:46:59.932Z,101476.55
2023-01-13T04:49:49.815Z,101467.93
2023-01-13T04:52:40.235Z,101467.88
2023-01-13T04:55:31.915Z,101468.08
2023-01-13T04:58:22.598Z,101471.47
2023-01-13T05:01:12.472Z,101467.56
2023-01-13T05:04:03.338Z,101472.81
2023-01-13T05:06:53.465Z,101471.88
2023-01-13T05:09:43.808Z,101474.67
2023-01-13T05:12:51.401Z,101473.92
2023-01-13T05:16:00.020Z,101470.78
2023-01-13T05:18:49.981Z,101470.26
2023-01-13T05:22:12.045Z,101472.36
2023-01-13T05:25:19.276Z,101478.68
2023-01-13T05:28:09.752Z,101479.59
2023-01-13T05:30:59.966Z,101475.98
2023-01-13T05:33:49.613Z,101473.58
2023-01-13T05:36:39.508Z,101471.91
2023-01-13T05:39:49.740Z,101476.80
2023-01-13T05:42:57.871Z,101475.07
2023-01-13T05:45:47.830Z,101473.58
2023-01-13T05:48:40.122Z,101475.48
2023-01-13T05:51:30.086Z,101476.09
2023-01-13T05:54:19.964Z,101477.46
2023-01-13T05:57:10.333Z,101474.55
2023-01-13T06:00:00.617Z,101474.92
2023-01-13T06:02:50.977Z,101478.02
2023-01-13T06:05:41.072Z,101481.02
2023-01-13T06:08:32.058Z,101481.02
2023-01-13T06:11:22.096Z,101480.77
2023-01-13T06:14:12.363Z,101477.39
2023-01-13T06:17:02.806Z,101483.17
2023-01-13T06:19:52.891Z,101488.89
2023-01-13T06:22:45.704Z,101488.48
2023-01-13T06:25:43.429Z,101481.08
2023-01-13T06:28:35.013Z,101481.08
2023-01-13T06:31:25.549Z,101477.08
2023-01-13T06:34:16.772Z,101473.56
2023-01-13T06:37:07.274Z,101481.40
2023-01-13T06:39:59.958Z,101487.59
2023-01-13T06:43:07.136Z,101487.74
2023-01-13T06:45:58.679Z,101491.34
2023-01-13T06:48:48.251Z,101489.49
2023-01-13T06:51:38.034Z,101487.92
2023-01-13T06:54:28.158Z,101482.74
2023-01-13T06:57:17.940Z,101481.80
2023-01-13T07:00:10.752Z,101490.54
2023-01-13T07:03:10.173Z,101494.09
2023-01-13T07:06:00.502Z,101501.48
2023-01-13T07:08:50.347Z,101503.73
2023-01-13T07:11:40.868Z,101503.34
2023-01-13T07:14:48.634Z,101504.92
2023-01-13T07:17:38.941Z,101508.48
2023-01-13T07:20:29.542Z,101509.99
2023-01-13T07:23:19.632Z,101507.09
2023-01-13T07:26:10.762Z,101510.98
2023-01-13T07:29:01.055Z,101509.95
2023-01-13T07:31:51.839Z,101510.92
2023-01-13T07:34:42.308Z,101508.75
2023-01-13T07:37:32.738Z,101509.88
2023-01-13T07:40:23.609Z,101509.86
2023-01-13T07:43:33.363Z,101501.95
2023-01-13T07:46:23.557Z,101495.88
2023-01-13T07:49:14.461Z,101496.97
2023-01-13T07:52:04.779Z,101501.52
2023-01-13T07:54:54.640Z,101503.35
2023-01-13T07:57:44.734Z,101501.73
2023-01-13T08:00:34.985Z,101503.01
2023-01-13T08:03:25.670Z,101508.26
2023-01-13T08:06:17.029Z,101511.03
2023-01-13T08:09:07.521Z,101516.75
2023-01-13T08:12:12.249Z,101524.10
2023-01-13T08:15:02.704Z,101518.29
2023-01-13T08:17:53.037Z,101524.70
2023-01-13T08:20:43.131Z,101530.05
2023-01-13T08:23:33.322Z,101527.90
2023-01-13T08:26:23.092Z,101520.77
2023-01-13T08:29:14.903Z,101518.29
2023-01-13T08:32:05.573Z,101517.42
2023-01-13T08:34:55.891Z,101521.77
2023-01-13T08:37:46.928Z,101520.38
2023-01-13T08:40:37.779Z,101519.18
2023-01-13T08:43:27.917Z,101515.94
2023-01-13T08:46:18.146Z,101510.41
2023-01-13T08:49:08.083Z,101504.70
2023-01-13T08:51:58.590Z,101507.14
2023-01-13T08:54:52.783Z,101496.30
2023-01-13T08:57:42.555Z,101493.82
2023-01-13T09:00:32.959Z,101504.13
2023-01-13T09:03:23.144Z,101510.74
2023-01-13T09:06:13.699Z,101514.73
2023-01-13T09:09:06.977Z,101524.45
2023-01-13T09:12:17.153Z,101527.63
2023-01-13T09:15:09.143Z,101531.58
2023-01-13T09:17:59.985Z,101532.87
2023-01-13T09:20:49.811Z,101543.05
2023-01-13T09:23:39.669Z,101547.88
2023-01-13T09:26:29.749Z,101544.78
2023-01-13T09:29:19.701Z,101541.82
2023-01-13T09:32:12.712Z,101546.85
2023-01-13T09:35:03.180Z,101557.95
2023-01-13T09:37:53.570Z,101561.27
2023-01-13T09:40:44.211Z,101558.23
2023-01-13T09:43:55.965Z,101554.10
2023-01-13T09:46:52.490Z,101559.51
2023-01-13T09:49:45.052Z,101569.53
2023-01-13T09:52:36.115Z,101567.15
2023-01-13T09:55:33.857Z,101565.49
2023-01-13T09:58:24.987Z,101563.27
2023-01-13T10:01:25.970Z,101562.29
2023-01-13T10:04:17.407Z,101556.85
2023-01-13T10:07:14.860Z,101561.17
2023-01-13T10:10:10.057Z,101561.42
2023-01-13T10:13:20.331Z,101554.88
2023-01-13T10:16:28.459Z,101549.27
2023-01-13T10:32:53.462Z,101531.23
2023-01-13T10:35:59.268Z,101532.88
2023-01-13T10:38:51.715Z,101534.29
2023-01-13T10:41:41.811Z,101530.45
2023-01-13T10:44:31.740Z,101524.98
2023-01-13T10:47:27.988Z,101513.30
2023-01-13T10:50:29.953Z,101507.45
2023-01-13T10:53:24.499Z,101503.19
2023-01-13T10:56:19.593Z,101500.65
2023-01-13T10:59:23.594Z,101502.60
2023-01-13T11:02:29.479Z,101498.94
2023-01-13T11:05:25.760Z,101501.95
2023-01-13T11:08:21.295Z,101503.88
2023-01-13T11:11:29.842Z,101502.13
2023-01-13T11:14:37.032Z,101502.74
2023-01-13T11:17:42.380Z,101509.20
2023-01-13T11:20:38.388Z,101511.46
2023-01-13T11:23:35.839Z,101511.49
2023-01-13T11:26:33.707Z,101513.48
2023-01-13T11:29:33.173Z,101507.56
2023-01-13T11:32:25.926Z,101501.48
2023-01-13T11:35:22.571Z,101499.45
2023-01-13T11:38:20.042Z,101500.85
2023-01-13T11:41:17.103Z,101502.32
2023-01-13T11:44:26.992Z,101497.81
2023-01-13T11:47:18.546Z,101497.98
2023-01-13T11:50:17.207Z,101491.19
2023-01-13T11:53:19.869Z,101483.91
2023-01-13T11:56:41.457Z,101475.98
2023-01-13T11:59:46.050Z,101477.04
2023-01-13T12:02:50.731Z,101470.41
2023-01-13T12:05:44.448Z,101460.94
2023-01-13T12:09:00.404Z,101452.93
2023-01-13T12:12:17.297Z,101446.36
2023-01-13T12:15:35.800Z,101436.13
2023-01-13T12:18:51.457Z,101428.09
2023-01-13T12:21:57.618Z,101421.67
2023-01-13T12:24:52.341Z,101419.70
2023-01-13T12:27:47.743Z,101416.59
2023-01-13T12:30:43.863Z,101413.33
2023-01-13T12:33:46.194Z,101412.07
2023-01-13T12:36:56.923Z,101409.34
2023-01-13T12:39:59.618Z,101407.16
2023-01-13T12:43:13.590Z,101406.95
2023-01-13T12:46:33.459Z,101409.02
2023-01-13T12:49:35.465Z,101405.59
2023-01-13T12:52:26.515Z,101401.45
2023-01-13T12:55:22.668Z,101394.75
2023-01-13T12:58:29.531Z,101385.95
2023-01-13T13:01:35.927Z,101380.50
2023-01-13T13:04:48.294Z,101367.45
2023-01-13T13:07:44.417Z,101356.97
2023-01-13T13:10:38.065Z,101347.16
2023-01-13T13:13:46.236Z,101347.48
2023-01-13T13:16:48.452Z,101335.38
2023-01-13T13:19:53.048Z,101334.93
2023-01-13T13:22:52.094Z,101332.11
2023-01-13T13:26:02.678Z,101335.79
2023-01-13T13:29:09.482Z,101331.68
2023-01-13T13:32:36.546Z,101329.16
2023-01-13T13:35:40.403Z,101324.92
2023-01-13T13:39:10.425Z,101336.66
2023-01-13T13:42:30.167Z,101341.52
2023-01-13T13:45:40.274Z,101342.80
2023-01-13T13:48:32.131Z,101344.41
2023-01-13T13:51:30.250Z,101340.82
2023-01-13T13:54:23.983Z,101345.88
2023-01-13T13:57:20.712Z,101347.02
2023-01-13T14:00:24.939Z,101342.80
2023-01-13T14:03:26.782Z,101347.24
2023-01-13T14:06:25.147Z,101353.07
2023-01-13T14:09:20.652Z,101360.28
2023-01-13T14:12:20.013Z,101363.50
2023-01-13T14:15:36.790Z,101365.82
2023-01-13T14:18:27.696Z,101364.46
2023-01-13T14:21:25.347Z,101347.11
2023-01-13T14:24:20.701Z,101347.63
2023-01-13T14:27:17.831Z,101355.10
2023-01-13T14:30:13.452Z,101353.32
2023-01-13T14:33:03.688Z,101360.05
2023-01-13T14:36:17.047Z,101366.94
2023-01-13T14:39:27.733Z,101368.71
2023-01-13T14:42:19.375Z,101367.36
2023-01-13T14:45:26.987Z,101369.90
2023-01-13T14:48:17.783Z,101375.25
2023-01-13T14:51:11.351Z,101373.58
2023-01-13T14:54:01.220Z,101373.40
2023-01-13T14:57:09.107Z,101371.15
2023-01-13T15:00:04.161Z,101366.41
2023-01-13T15:03:07.297Z,101372.55
2023-01-13T15:05:57.350Z,101376.73
2023-01-13T15:08:48.232Z,101381.87
2023-01-13T15:11:38.497Z,101389.70
2023-01-13T15:14:32.512Z,101393.58
2023-01-13T15:17:22.859Z,101395.93
2023-01-13T15:20:17.568Z,101398.06
2023-01-13T15:23:07.525Z,101407.54
2023-01-13T15:25:57.440Z,101417.88
2023-01-13T15:28:47.047Z,101418.33
2023-01-13T15:31:36.970Z,101418.30
2023-01-13T15:34:26.737Z,101416.54
2023-01-13T15:37:16.983Z,101419.21
2023-01-13T15:40:12.816Z,101434.19
2023-01-13T15:43:20.331Z,101442.80
2023-01-13T15:46:34.394Z,101441.19
2023-01-13T15:49:34.890Z,101433.52
2023-01-13T15:52:26.213Z,101428.63
2023-01-13T15:55:16.092Z,101425.27
2023-01-13T15:58:06.252Z,101425.25
2023-01-13T16:00:56.498Z,101427.36
2023-01-13T16:03:46.836Z,101429.89
2023-01-13T16:06:37.363Z,101425.44
2023-01-13T16:09:27.515Z,101423.36
2023-01-13T16:12:17.676Z,101428.58
2023-01-13T16:15:09.600Z,101442.52
2023-01-13T16:18:01.258Z,101447.77
2023-01-13T16:20:53.809Z,101441.76
2023-01-13T16:23:44.539Z,101440.62
2023-01-13T16:26:37.599Z,101445.83
2023-01-13T16:29:27.588Z,101450.65
2023-01-13T16:32:18.455Z,101451.69
2023-01-13T16:35:10.781Z,101447.66
2023-01-13T16:38:01.471Z,101450.34
2023-01-13T16:40:52.367Z,101459.77
2023-01-13T16:43:42.751Z,101467.66
2023-01-13T16:46:33.641Z,101481.23
2023-01-13T16:49:23.755Z,101490.39
2023-01-13T16:52:13.886Z,101493.40
2023-01-13T16:55:04.250Z,101485.38
2023-01-13T16:57:54.046Z,101481.09
2023-01-13T17:00:46.993Z,101478.13
2023-01-13T17:03:38.561Z,101479.02
2023-01-13T17:06:33.598Z,101484.69
2023-01-13T17:09:25.459Z,101489.06
2023-01-13T17:12:15.630Z,101494.70
2023-01-13T17:15:05.864Z,101495.11
2023-01-13T17:17:57.352Z,101496.32
2023-01-13T17:20:47.742Z,101493.38
2023-01-13T17:23:38.325Z,101497.09
2023-01-13T17:26:37.370Z,101502.39
2023-01-13T17:29:27.925Z,101506.61
2023-01-13T17:32:23.225Z,101514.27
2023-01-13T17:35:15.785Z,101519.11
2023-01-13T17:38:05.782Z,101520.34
2023-01-13T17:40:55.903Z,101523.08
2023-01-13T17:43:46.098Z,101520.17
2023-01-13T17:46:36.436Z,101525.64
2023-01-13T17:49:26.867Z,101530.13
2023-01-13T17:52:17.331Z,101536.11
2023-01-13T17:55:08.637Z,101541.92
2023-01-13T17:57:58.951Z,101544.25
2023-01-13T18:00:50.091Z,101550.61
2023-01-13T18:03:40.310Z,101551.75
2023-01-13T18:06:30.574Z,101556.50
2023-01-13T18:09:21.087Z,101562.92
2023-01-13T18:12:11.820Z,101567.80
2023-01-13T18:15:02.799Z,101569.71
2023-01-13T18:17:52.639Z,101568.56
2023-01-13T18:21:02.853Z,101571.27
2023-01-13T18:24:10.729Z,101575.75
2023-01-13T18:27:18.798Z,101581.52
2023-01-13T18:30:10.642Z,101587.74
2023-01-13T18:33:00.587Z,101593.29
2023-01-13T18:35:50.987Z,101599.08
2023-01-13T18:38:41.063Z,101596.79
2023-01-13T18:41:48.343Z,101596.58
2023-01-13T18:44:38.938Z,101596.36
2023-01-13T18:47:32.228Z,101598.01
2023-01-13T18:50:22.726Z,101598.72
2023-01-13T18:53:12.577Z,101599.07
2023-01-13T18:56:05.583Z,101598.36
2023-01-13T18:58:55.349Z,101602.30
2023-01-13T19:01:45.999Z,101604.67
2023-01-13T19:04:37.432Z,101601.16
2023-01-13T19:07:29.296Z,101598.46
2023-01-13T19:10:20.623Z,101600.38
2023-01-13T19:13:11.117Z,101602.67
2023-01-13T19:16:08.042Z,101603.02
2023-01-13T19:18:58.377Z,101606.34
2023-01-13T19:21:48.318Z,101609.42
2023-01-13T19:24:41.901Z,101613.19
2023-01-13T19:27:32.717Z,101613.80
2023-01-13T19:30:23.261Z,101621.13
2023-01-13T19:33:13.611Z,101625.35
2023-01-13T19:36:05.485Z,101626.86
2023-01-13T19:38:56.252Z,101628.39
2023-01-13T19:42:03.856Z,101625.83
2023-01-13T19:45:12.607Z,101632.71
2023-01-13T19:48:05.568Z,101644.16
2023-01-13T19:50:56.056Z,101646.45
2023-01-13T19:53:47.384Z,101641.71
2023-01-13T19:56:38.913Z,101639.16
2023-01-13T19:59:30.598Z,101646.06
2023-01-13T20:02:28.391Z,101642.00
2023-01-13T20:05:22.773Z,101639.94
2023-01-13T20:08:13.201Z,101649.61
2023-01-13T20:11:17.991Z,101655.89
2023-01-13T20:14:08.706Z,101657.52
2023-01-13T20:16:58.706Z,101658.04
2023-01-13T20:19:49.015Z,101656.33
2023-01-13T20:22:42.788Z,101659.16
2023-01-13T20:25:33.328Z,101662.50
2023-01-13T20:28:24.088Z,101662.42
2023-01-13T20:31:15.367Z,101663.77
2023-01-13T20:34:05.701Z,101661.19
2023-01-13T20:36:56.072Z,101658.27
2023-01-13T20:39:46.655Z,101660.39
2023-01-13T20:42:44.984Z,101661.05
2023-01-13T20:45:35.584Z,101663.39
2023-01-13T20:48:26.041Z,101667.45
2023-01-13T20:51:16.660Z,101675.05
2023-01-13T20:54:07.673Z,101681.65
2023-01-13T20:56:57.863Z,101679.38
2023-01-13T20:59:48.066Z,101678.68
2023-01-13T21:02:39.796Z,101682.02
2023-01-13T21:05:30.213Z,101675.53
2023-01-13T21:08:20.663Z,101677.55
2023-01-13T21:11:11.340Z,101676.79
2023-01-13T21:14:19.181Z,101671.98
2023-01-13T21:17:34.116Z,101677.27
2023-01-13T21:20:24.252Z,101675.41
2023-01-13T21:23:15.583Z,101679.64
2023-01-13T21:26:06.240Z,101674.83
2023-01-13T21:29:00.116Z,101672.34
2023-01-13T21:31:50.245Z,101679.63
2023-01-13T21:34:40.834Z,101685.08
2023-01-13T21:37:31.101Z,101684.84
2023-01-13T21:40:22.126Z,101687.70
2023-01-13T21:43:32.575Z,101683.09
2023-01-13T21:46:41.346Z,101687.38
2023-01-13T21:49:32.082Z,101693.40
2023-01-13T21:52:25.435Z,101705.65
2023-01-13T21:55:28.877Z,101705.98
2023-01-13T21:58:19.792Z,101714.62
2023-01-13T22:01:11.846Z,101718.86
2023-01-13T22:04:14.564Z,101724.86
2023-01-13T22:07:06.529Z,101733.35
2023-01-13T22:09:57.357Z,101739.92
2023-01-13T22:12:48.142Z,101744.01
2023-01-13T22:15:37.940Z,101748.95
2023-01-13T22:18:27.686Z,101756.52
2023-01-13T22:21:17.981Z,101753.84
2023-01-13T22:24:08.586Z,101752.33
2023-01-13T22:26:58.478Z,101759.73
2023-01-13T22:29:48.966Z,101763.76
2023-01-13T22:32:39.774Z,101760.14
2023-01-13T22:35:30.046Z,101764.96
2023-01-13T22:38:20.660Z,101768.36
2023-01-13T22:41:11.967Z,101770.19
2023-01-13T22:44:01.716Z,101763.58
2023-01-13T22:46:51.655Z,101758.64
2023-01-13T22:49:42.225Z,101761.04
2023-01-13T22:52:34.020Z,101762.63
2023-01-13T22:55:24.209Z,101759.19
2023-01-13T22:58:14.437Z,101751.58
2023-01-13T23:01:13.467Z,101749.23
2023-01-13T23:04:04.437Z,101752.36
2023-01-13T23:06:54.347Z,101752.54
2023-01-13T23:09:44.612Z,101750.54
2023-01-13T23:12:34.446Z,101747.11
2023-01-13T23:15:24.989Z,101744.66
2023-01-13T23:18:15.100Z,101741.55
2023-01-13T23:21:11.170Z,101735.87
2023-01-13T23:24:01.607Z,101732.94
2023-01-13T23:26:51.896Z,101734.52
2023-01-13T23:29:41.974Z,101737.86
2023-01-13T23:32:32.516Z,101740.84
2023-01-13T23:35:22.667Z,101739.87
2023-01-13T23:38:12.439Z,101740.36
2023-01-13T23:41:02.479Z,101740.52
2023-01-13T23:43:57.237Z,101742.57
2023-01-13T23:46:47.100Z,101745.17
2023-01-13T23:49:37.651Z,101750.55
2023-01-13T23:52:27.820Z,101744.56
2023-01-13T23:55:18.421Z,101747.66
2023-01-13T23:58:08.824Z,101747.71
